sensor_id;sensor_type;location;lat;lon;timestamp;temperature;humidity
4002;DHT22;2015;48.670;9.060;2023-05-10T00:01:20;13.10;99.90
4002;DHT22;2015;48.670;9.060;2023-05-10T00:03:52;13.20;99.90
4002;DHT22;2015;48.670;9.060;2023-05-10T00:06:24;13.20;99.90
4002;DHT22;2015;48.670;9.060;2023-05-10T00:08:55;13.10;99.90
4002;DHT22;2015;48.670;9.060;2023-05-10T00:11:27;13.10;99.90
4002;DHT22;2015;48.670;9.060;2023-05-10T00:13:59;13.10;99.90
4002;DHT22;2015;48.670;9.060;2023-05-10T00:16:31;13.10;99.90
4002;DHT22;2015;48.670;9.060;2023-05-10T00:19:03;13.10;99.90
4002;DHT22;2015;48.670;9.060;2023-05-10T00:21:34;13.10;99.90
4002;DHT22;2015;48.670;9.060;2023-05-10T00:24:06;13.10;99.90
4002;DHT22;2015;48.670;9.060;2023-05-10T00:26:38;13.10;99.90
4002;DHT22;2015;48.670;9.060;2023-05-10T00:29:10;13.00;99.90
4002;DHT22;2015;48.670;9.060;2023-05-10T00:31:41;13.00;99.90
4002;DHT22;2015;48.670;9.060;2023-05-10T00:34:13;12.90;99.90
4002;DHT22;2015;48.670;9.060;2023-05-10T00:36:45;12.90;99.90
4002;DHT22;2015;48.670;9.060;2023-05-10T00:39:16;12.80;99.90
4002;DHT22;2015;48.670;9.060;2023-05-10T00:41:48;12.80;99.90
4002;DHT22;2015;48.670;9.060;2023-05-10T00:44:20;12.80;99.90
4002;DHT22;2015;48.670;9.060;2023-05-10T00:46:52;12.70;99.90
4002;DHT22;2015;48.670;9.060;2023-05-10T00:49:24;12.70;99.90
4002;DHT22;2015;48.670;9.060;2023-05-10T00:51:56;12.70;99.90
4002;DHT22;2015;48.670;9.060;2023-05-10T00:54:28;12.70;99.90
4002;DHT22;2015;48.670;9.060;2023-05-10T00:56:59;12.70;99.90
4002;DHT22;2015;48.670;9.060;2023-05-10T00:59:31;12.70;99.90
4002;DHT22;2015;48.670;9.060;2023-05-10T01:02:04;12.60;99.90
4002;DHT22;2015;48.670;9.060;2023-05-10T01:04:37;12.60;99.90
4002;DHT22;2015;48.670;9.060;2023-05-10T01:07:09;12.60;99.90
4002;DHT22;2015;48.670;9.060;2023-05-10T01:09:41;12.60;99.90
4002;DHT22;2015;48.670;9.060;2023-05-10T01:12:13;12.50;99.90
4002;DHT22;2015;48.670;9.060;2023-05-10T01:14:44;12.50;99.90
4002;DHT22;2015;48.670;9.060;2023-05-10T01:17:16;12.50;99.90
4002;DHT22;2015;48.670;9.060;2023-05-10T01:19:49;12.50;99.90
4002;DHT22;2015;48.670;9.060;2023-05-10T01:22:34;12.50;99.90
4002;DHT22;2015;48.670;9.060;2023-05-10T01:28:13;12.50;99.90
4002;DHT22;2015;48.670;9.060;2023-05-10T01:34:01;12.50;99.90
4002;DHT22;2015;48.670;9.060;2023-05-10T01:36:52;12.50;99.90
4002;DHT22;2015;48.670;9.060;2023-05-10T01:39:57;12.50;99.90
4002;DHT22;2015;48.670;9.060;2023-05-10T01:42:40;12.50;99.90
4002;DHT22;2015;48.670;9.060;2023-05-10T01:45:40;12.50;99.90
4002;DHT22;2015;48.670;9.060;2023-05-10T01:48:14;12.50;99.90
4002;DHT22;2015;48.670;9.060;2023-05-10T01:50:46;12.50;99.90
4002;DHT22;2015;48.670;9.060;2023-05-10T01:53:21;12.50;99.90
4002;DHT22;2015;48.670;9.060;2023-05-10T01:55:55;12.50;99.90
4002;DHT22;2015;48.670;9.060;2023-05-10T01:58:30;12.50;99.90
4002;DHT22;2015;48.670;9.060;2023-05-10T02:01:03;12.40;99.90
4002;DHT22;2015;48.670;9.060;2023-05-10T02:03:38;12.40;99.90
4002;DHT22;2015;48.670;9.060;2023-05-10T02:06:10;12.40;99.90
4002;DHT22;2015;48.670;9.060;2023-05-10T02:08:45;12.40;99.90
4002;DHT22;2015;48.670;9.060;2023-05-10T02:11:19;12.40;99.90
4002;DHT22;2015;48.670;9.060;2023-05-10T02:13:53;12.40;99.90
4002;DHT22;2015;48.670;9.060;2023-05-10T02:16:27;12.40;99.90
4002;DHT22;2015;48.670;9.060;2023-05-10T02:19:02;12.40;99.90
4002;DHT22;2015;48.670;9.060;2023-05-10T02:21:35;12.40;99.90
4002;DHT22;2015;48.670;9.060;2023-05-10T02:24:08;12.30;99.90
4002;DHT22;2015;48.670;9.060;2023-05-10T02:26:42;12.30;99.90
4002;DHT22;2015;48.670;9.060;2023-05-10T02:29:16;12.30;99.90
4002;DHT22;2015;48.670;9.060;2023-05-10T02:31:49;12.20;99.90
4002;DHT22;2015;48.670;9.060;2023-05-10T02:34:23;12.20;99.90
4002;DHT22;2015;48.670;9.060;2023-05-10T02:36:57;12.10;99.90
4002;DHT22;2015;48.670;9.060;2023-05-10T02:39:29;12.00;99.90
4002;DHT22;2015;48.670;9.060;2023-05-10T02:42:02;12.00;99.90
4002;DHT22;2015;48.670;9.060;2023-05-10T02:44:36;12.00;99.90
4002;DHT22;2015;48.670;9.060;2023-05-10T02:47:08;12.10;99.90
4002;DHT22;2015;48.670;9.060;2023-05-10T02:49:41;12.10;99.90
4002;DHT22;2015;48.670;9.060;2023-05-10T02:52:16;12.10;99.90
4002;DHT22;2015;48.670;9.060;2023-05-10T02:54:50;12.10;99.90
4002;DHT22;2015;48.670;9.060;2023-05-10T02:57:28;12.10;99.90
4002;DHT22;2015;48.670;9.060;2023-05-10T03:00:01;12.10;99.90
4002;DHT22;2015;48.670;9.060;2023-05-10T03:02:34;12.10;99.90
4002;DHT22;2015;48.670;9.060;2023-05-10T03:05:08;12.10;99.90
4002;DHT22;2015;48.670;9.060;2023-05-10T03:07:39;12.10;99.90
4002;DHT22;2015;48.670;9.060;2023-05-10T03:10:11;12.10;99.90
4002;DHT22;2015;48.670;9.060;2023-05-10T03:13:24;12.10;99.90
4002;DHT22;2015;48.670;9.060;2023-05-10T03:16:29;12.20;99.90
4002;DHT22;2015;48.670;9.060;2023-05-10T03:19:16;12.10;99.90
4002;DHT22;2015;48.670;9.060;2023-05-10T03:21:50;12.20;99.90
4002;DHT22;2015;48.670;9.060;2023-05-10T03:24:27;12.10;99.90
4002;DHT22;2015;48.670;9.060;2023-05-10T03:27:00;12.10;99.90
4002;DHT22;2015;48.670;9.060;2023-05-10T03:29:34;12.20;99.90
4002;DHT22;2015;48.670;9.060;2023-05-10T03:32:07;12.10;99.90
4002;DHT22;2015;48.670;9.060;2023-05-10T03:34:42;12.20;99.90
4002;DHT22;2015;48.670;9.060;2023-05-10T03:37:17;12.20;99.90
4002;DHT22;2015;48.670;9.060;2023-05-10T03:39:48;12.20;99.90
4002;DHT22;2015;48.670;9.060;2023-05-10T03:42:20;12.20;99.90
4002;DHT22;2015;48.670;9.060;2023-05-10T03:44:52;12.20;99.90
4002;DHT22;2015;48.670;9.060;2023-05-10T03:47:24;12.20;99.90
4002;DHT22;2015;48.670;9.060;2023-05-10T03:49:56;12.20;99.90
4002;DHT22;2015;48.670;9.060;2023-05-10T03:52:27;12.20;99.90
4002;DHT22;2015;48.670;9.060;2023-05-10T03:54:59;12.20;99.90
4002;DHT22;2015;48.670;9.060;2023-05-10T03:57:31;12.10;99.90
4002;DHT22;2015;48.670;9.060;2023-05-10T04:00:03;12.10;99.90
4002;DHT22;2015;48.670;9.060;2023-05-10T04:02:35;12.10;99.90
4002;DHT22;2015;48.670;9.060;2023-05-10T04:05:07;12.00;99.90
4002;DHT22;2015;48.670;9.060;2023-05-10T04:07:39;12.00;99.90
4002;DHT22;2015;48.670;9.060;2023-05-10T04:10:11;12.00;99.90
4002;DHT22;2015;48.670;9.060;2023-05-10T04:12:43;11.90;99.90
4002;DHT22;2015;48.670;9.060;2023-05-10T04:15:15;12.00;99.90
4002;DHT22;2015;48.670;9.060;2023-05-10T04:17:47;12.00;99.90
4002;DHT22;2015;48.670;9.060;2023-05-10T04:20:19;12.00;99.90
4002;DHT22;2015;48.670;9.060;2023-05-10T04:22:50;11.90;99.90
4002;DHT22;2015;48.670;9.060;2023-05-10T04:25:22;12.00;99.90
4002;DHT22;2015;48.670;9.060;2023-05-10T04:27:54;12.00;99.90
4002;DHT22;2015;48.670;9.060;2023-05-10T04:30:26;12.00;99.90
4002;DHT22;2015;48.670;9.060;2023-05-10T04:33:00;12.00;99.90
4002;DHT22;2015;48.670;9.060;2023-05-10T04:35:31;12.00;99.90
4002;DHT22;2015;48.670;9.060;2023-05-10T04:38:03;12.00;99.90
4002;DHT22;2015;48.670;9.060;2023-05-10T04:40:35;12.00;99.90
4002;DHT22;2015;48.670;9.060;2023-05-10T04:43:07;12.00;99.90
4002;DHT22;2015;48.670;9.060;2023-05-10T04:45:38;12.10;99.90
4002;DHT22;2015;48.670;9.060;2023-05-10T04:48:10;12.10;99.90
4002;DHT22;2015;48.670;9.060;2023-05-10T04:50:42;12.10;99.90
4002;DHT22;2015;48.670;9.060;2023-05-10T04:53:14;12.10;99.90
4002;DHT22;2015;48.670;9.060;2023-05-10T04:55:46;12.10;99.90
4002;DHT22;2015;48.670;9.060;2023-05-10T04:58:19;12.20;99.90
4002;DHT22;2015;48.670;9.060;2023-05-10T05:00:51;12.10;99.90
4002;DHT22;2015;48.670;9.060;2023-05-10T05:03:22;12.20;99.90
4002;DHT22;2015;48.670;9.060;2023-05-10T05:05:54;12.20;99.90
4002;DHT22;2015;48.670;9.060;2023-05-10T05:08:26;12.10;99.90
4002;DHT22;2015;48.670;9.060;2023-05-10T05:10:58;12.20;99.90
4002;DHT22;2015;48.670;9.060;2023-05-10T05:13:30;12.20;99.90
4002;DHT22;2015;48.670;9.060;2023-05-10T05:16:02;12.20;99.90
4002;DHT22;2015;48.670;9.060;2023-05-10T05:18:34;12.30;99.90
4002;DHT22;2015;48.670;9.060;2023-05-10T05:21:17;12.40;99.90
4002;DHT22;2015;48.670;9.060;2023-05-10T05:23:49;12.40;99.90
4002;DHT22;2015;48.670;9.060;2023-05-10T05:26:20;12.40;99.90
4002;DHT22;2015;48.670;9.060;2023-05-10T05:28:52;12.40;99.90
4002;DHT22;2015;48.670;9.060;2023-05-10T05:31:26;12.40;99.90
4002;DHT22;2015;48.670;9.060;2023-05-10T05:33:58;12.40;99.90
4002;DHT22;2015;48.670;9.060;2023-05-10T05:36:29;12.40;99.90
4002;DHT22;2015;48.670;9.060;2023-05-10T05:39:02;12.50;99.90
4002;DHT22;2015;48.670;9.060;2023-05-10T05:41:34;12.50;99.90
4002;DHT22;2015;48.670;9.060;2023-05-10T05:44:06;12.50;99.90
4002;DHT22;2015;48.670;9.060;2023-05-10T05:46:38;12.50;99.90
4002;DHT22;2015;48.670;9.060;2023-05-10T05:49:10;12.50;99.90
4002;DHT22;2015;48.670;9.060;2023-05-10T05:51:41;12.50;99.90
4002;DHT22;2015;48.670;9.060;2023-05-10T05:54:13;12.60;99.90
4002;DHT22;2015;48.670;9.060;2023-05-10T05:56:45;12.70;99.90
4002;DHT22;2015;48.670;9.060;2023-05-10T05:59:17;12.70;99.90
4002;DHT22;2015;48.670;9.060;2023-05-10T06:01:48;12.80;99.90
4002;DHT22;2015;48.670;9.060;2023-05-10T06:04:20;12.80;99.90
4002;DHT22;2015;48.670;9.060;2023-05-10T06:06:52;12.90;99.90
4002;DHT22;2015;48.670;9.060;2023-05-10T06:09:24;12.90;99.90
4002;DHT22;2015;48.670;9.060;2023-05-10T06:11:56;13.00;99.90
4002;DHT22;2015;48.670;9.060;2023-05-10T06:14:27;13.00;99.90
4002;DHT22;2015;48.670;9.060;2023-05-10T06:16:59;13.10;99.90
4002;DHT22;2015;48.670;9.060;2023-05-10T06:19:31;13.10;99.90
4002;DHT22;2015;48.670;9.060;2023-05-10T06:22:03;13.10;99.90
4002;DHT22;2015;48.670;9.060;2023-05-10T06:24:35;13.20;99.90
4002;DHT22;2015;48.670;9.060;2023-05-10T06:27:07;13.20;99.90
4002;DHT22;2015;48.670;9.060;2023-05-10T06:29:39;13.30;99.90
4002;DHT22;2015;48.670;9.060;2023-05-10T06:32:10;13.30;99.90
4002;DHT22;2015;48.670;9.060;2023-05-10T06:34:42;13.40;99.90
4002;DHT22;2015;48.670;9.060;2023-05-10T06:37:15;13.30;99.90
4002;DHT22;2015;48.670;9.060;2023-05-10T06:39:46;13.40;99.90
4002;DHT22;2015;48.670;9.060;2023-05-10T06:42:18;13.40;99.90
4002;DHT22;2015;48.670;9.060;2023-05-10T06:44:50;13.40;99.90
4002;DHT22;2015;48.670;9.060;2023-05-10T06:47:22;13.40;99.90
4002;DHT22;2015;48.670;9.060;2023-05-10T06:49:54;13.40;99.90
4002;DHT22;2015;48.670;9.060;2023-05-10T06:52:27;13.40;99.90
4002;DHT22;2015;48.670;9.060;2023-05-10T06:54:59;13.40;99.90
4002;DHT22;2015;48.670;9.060;2023-05-10T06:57:31;13.50;99.90
4002;DHT22;2015;48.670;9.060;2023-05-10T07:00:04;13.50;99.90
4002;DHT22;2015;48.670;9.060;2023-05-10T07:02:36;13.60;99.90
4002;DHT22;2015;48.670;9.060;2023-05-10T07:05:08;13.70;99.90
4002;DHT22;2015;48.670;9.060;2023-05-10T07:07:40;13.80;99.90
4002;DHT22;2015;48.670;9.060;2023-05-10T07:10:12;13.80;99.90
4002;DHT22;2015;48.670;9.060;2023-05-10T07:12:43;13.90;99.90
4002;DHT22;2015;48.670;9.060;2023-05-10T07:15:15;14.00;99.90
4002;DHT22;2015;48.670;9.060;2023-05-10T07:17:48;14.00;99.90
4002;DHT22;2015;48.670;9.060;2023-05-10T07:20:20;14.10;99.90
4002;DHT22;2015;48.670;9.060;2023-05-10T07:22:51;14.10;99.90
4002;DHT22;2015;48.670;9.060;2023-05-10T07:25:23;14.20;99.90
4002;DHT22;2015;48.670;9.060;2023-05-10T07:27:55;14.20;99.90
4002;DHT22;2015;48.670;9.060;2023-05-10T07:30:27;14.20;99.90
4002;DHT22;2015;48.670;9.060;2023-05-10T07:32:59;14.40;99.90
4002;DHT22;2015;48.670;9.060;2023-05-10T07:35:31;14.40;99.90
4002;DHT22;2015;48.670;9.060;2023-05-10T07:38:02;14.50;99.90
4002;DHT22;2015;48.670;9.060;2023-05-10T07:40:34;14.60;99.90
4002;DHT22;2015;48.670;9.060;2023-05-10T07:43:06;14.60;99.90
4002;DHT22;2015;48.670;9.060;2023-05-10T07:45:38;14.50;99.90
4002;DHT22;2015;48.670;9.060;2023-05-10T07:48:09;14.50;99.90
4002;DHT22;2015;48.670;9.060;2023-05-10T07:50:41;14.50;99.90
4002;DHT22;2015;48.670;9.060;2023-05-10T07:53:13;14.50;99.90
4002;DHT22;2015;48.670;9.060;2023-05-10T07:55:50;14.50;99.90
4002;DHT22;2015;48.670;9.060;2023-05-10T07:58:22;14.40;99.90
4002;DHT22;2015;48.670;9.060;2023-05-10T08:00:53;14.40;99.90
4002;DHT22;2015;48.670;9.060;2023-05-10T08:03:25;14.40;99.90
4002;DHT22;2015;48.670;9.060;2023-05-10T08:05:57;14.60;99.90
4002;DHT22;2015;48.670;9.060;2023-05-10T08:08:29;14.60;99.90
4002;DHT22;2015;48.670;9.060;2023-05-10T08:11:01;14.60;99.90
4002;DHT22;2015;48.670;9.060;2023-05-10T08:13:33;14.60;99.90
4002;DHT22;2015;48.670;9.060;2023-05-10T08:16:05;14.70;99.90
4002;DHT22;2015;48.670;9.060;2023-05-10T08:18:38;14.70;99.90
4002;DHT22;2015;48.670;9.060;2023-05-10T08:21:09;14.80;99.90
4002;DHT22;2015;48.670;9.060;2023-05-10T08:23:42;14.90;99.90
4002;DHT22;2015;48.670;9.060;2023-05-10T08:26:15;15.00;99.90
4002;DHT22;2015;48.670;9.060;2023-05-10T08:28:47;15.00;99.90
4002;DHT22;2015;48.670;9.060;2023-05-10T08:31:19;15.10;99.90
4002;DHT22;2015;48.670;9.060;2023-05-10T08:33:51;15.10;99.90
4002;DHT22;2015;48.670;9.060;2023-05-10T08:36:24;15.00;99.90
4002;DHT22;2015;48.670;9.060;2023-05-10T08:38:56;15.20;99.90
4002;DHT22;2015;48.670;9.060;2023-05-10T08:41:28;15.20;99.90
4002;DHT22;2015;48.670;9.060;2023-05-10T08:44:04;15.40;99.90
4002;DHT22;2015;48.670;9.060;2023-05-10T08:46:37;15.40;99.90
4002;DHT22;2015;48.670;9.060;2023-05-10T08:49:13;15.30;99.90
4002;DHT22;2015;48.670;9.060;2023-05-10T08:51:51;15.50;99.90
4002;DHT22;2015;48.670;9.060;2023-05-10T08:54:24;15.50;99.90
4002;DHT22;2015;48.670;9.060;2023-05-10T08:56:56;15.50;99.90
4002;DHT22;2015;48.670;9.060;2023-05-10T08:59:28;15.60;99.90
4002;DHT22;2015;48.670;9.060;2023-05-10T09:02:00;15.60;99.90
4002;DHT22;2015;48.670;9.060;2023-05-10T09:04:33;15.70;99.90
4002;DHT22;2015;48.670;9.060;2023-05-10T09:07:06;15.70;99.90
4002;DHT22;2015;48.670;9.060;2023-05-10T09:09:38;15.80;99.90
4002;DHT22;2015;48.670;9.060;2023-05-10T09:12:10;15.70;99.90
4002;DHT22;2015;48.670;9.060;2023-05-10T09:14:44;15.70;99.90
4002;DHT22;2015;48.670;9.060;2023-05-10T09:17:17;15.60;99.90
4002;DHT22;2015;48.670;9.060;2023-05-10T09:19:49;15.70;99.90
4002;DHT22;2015;48.670;9.060;2023-05-10T09:22:21;15.60;99.90
4002;DHT22;2015;48.670;9.060;2023-05-10T09:25:09;15.60;99.90
4002;DHT22;2015;48.670;9.060;2023-05-10T09:27:46;15.50;99.90
4002;DHT22;2015;48.670;9.060;2023-05-10T09:32:58;15.40;99.90
4002;DHT22;2015;48.670;9.060;2023-05-10T09:35:32;15.40;99.90
4002;DHT22;2015;48.670;9.060;2023-05-10T09:38:04;15.30;99.90
4002;DHT22;2015;48.670;9.060;2023-05-10T09:40:37;15.30;99.90
4002;DHT22;2015;48.670;9.060;2023-05-10T09:43:08;15.50;99.90
4002;DHT22;2015;48.670;9.060;2023-05-10T09:45:42;15.50;99.90
4002;DHT22;2015;48.670;9.060;2023-05-10T09:48:14;15.90;99.90
4002;DHT22;2015;48.670;9.060;2023-05-10T09:50:56;15.90;99.90
4002;DHT22;2015;48.670;9.060;2023-05-10T09:53:28;15.90;99.90
4002;DHT22;2015;48.670;9.060;2023-05-10T09:56:00;16.20;99.90
4002;DHT22;2015;48.670;9.060;2023-05-10T09:58:36;16.40;99.90
4002;DHT22;2015;48.670;9.060;2023-05-10T10:01:12;16.80;99.90
4002;DHT22;2015;48.670;9.060;2023-05-10T10:03:45;16.90;99.90
4002;DHT22;2015;48.670;9.060;2023-05-10T10:06:19;17.20;99.90
4002;DHT22;2015;48.670;9.060;2023-05-10T10:09:01;17.20;99.90
4002;DHT22;2015;48.670;9.060;2023-05-10T10:11:38;17.40;99.90
4002;DHT22;2015;48.670;9.060;2023-05-10T10:14:11;17.70;99.90
4002;DHT22;2015;48.670;9.060;2023-05-10T10:16:44;17.80;99.90
4002;DHT22;2015;48.670;9.060;2023-05-10T10:19:31;18.10;99.90
4002;DHT22;2015;48.670;9.060;2023-05-10T10:22:04;18.30;99.90
4002;DHT22;2015;48.670;9.060;2023-05-10T10:24:38;18.10;99.90
4002;DHT22;2015;48.670;9.060;2023-05-10T10:30:43;17.60;99.90
4002;DHT22;2015;48.670;9.060;2023-05-10T10:36:00;18.10;99.90
4002;DHT22;2015;48.670;9.060;2023-05-10T10:38:59;17.80;99.90
4002;DHT22;2015;48.670;9.060;2023-05-10T10:41:55;17.30;99.90
4002;DHT22;2015;48.670;9.060;2023-05-10T10:55:07;15.90;99.90
4002;DHT22;2015;48.670;9.060;2023-05-10T11:00:36;14.90;99.90
4002;DHT22;2015;48.670;9.060;2023-05-10T11:03:10;14.50;99.90
4002;DHT22;2015;48.670;9.060;2023-05-10T11:05:50;14.20;99.90
4002;DHT22;2015;48.670;9.060;2023-05-10T11:08:28;14.10;99.90
4002;DHT22;2015;48.670;9.060;2023-05-10T11:16:23;13.90;99.90
4002;DHT22;2015;48.670;9.060;2023-05-10T11:19:08;13.80;99.90
4002;DHT22;2015;48.670;9.060;2023-05-10T11:24:37;14.10;99.90
4002;DHT22;2015;48.670;9.060;2023-05-10T11:27:09;14.30;99.90
4002;DHT22;2015;48.670;9.060;2023-05-10T11:29:43;14.30;99.90
4002;DHT22;2015;48.670;9.060;2023-05-10T11:32:15;14.20;99.90
4002;DHT22;2015;48.670;9.060;2023-05-10T11:34:47;14.10;99.90
4002;DHT22;2015;48.670;9.060;2023-05-10T11:37:22;14.30;99.90
4002;DHT22;2015;48.670;9.060;2023-05-10T11:39:54;14.40;99.90
4002;DHT22;2015;48.670;9.060;2023-05-10T11:42:27;14.60;99.90
4002;DHT22;2015;48.670;9.060;2023-05-10T11:45:00;14.70;99.90
4002;DHT22;2015;48.670;9.060;2023-05-10T11:47:32;14.70;99.90
4002;DHT22;2015;48.670;9.060;2023-05-10T11:50:05;15.00;99.90
4002;DHT22;2015;48.670;9.060;2023-05-10T11:52:37;15.10;99.90
4002;DHT22;2015;48.670;9.060;2023-05-10T11:55:09;15.10;99.90
4002;DHT22;2015;48.670;9.060;2023-05-10T11:57:41;15.30;99.90
4002;DHT22;2015;48.670;9.060;2023-05-10T12:00:14;15.80;99.90
4002;DHT22;2015;48.670;9.060;2023-05-10T12:02:46;16.30;99.90
4002;DHT22;2015;48.670;9.060;2023-05-10T12:05:19;16.60;99.90
4002;DHT22;2015;48.670;9.060;2023-05-10T12:07:51;16.50;99.90
4002;DHT22;2015;48.670;9.060;2023-05-10T12:10:26;16.70;99.90
4002;DHT22;2015;48.670;9.060;2023-05-10T12:12:58;16.50;99.90
4002;DHT22;2015;48.670;9.060;2023-05-10T12:15:30;16.80;99.90
4002;DHT22;2015;48.670;9.060;2023-05-10T12:18:02;17.10;99.90
4002;DHT22;2015;48.670;9.060;2023-05-10T12:20:34;16.80;99.90
4002;DHT22;2015;48.670;9.060;2023-05-10T12:23:08;16.90;99.90
4002;DHT22;2015;48.670;9.060;2023-05-10T12:25:41;16.90;99.90
4002;DHT22;2015;48.670;9.060;2023-05-10T12:28:13;16.80;99.90
4002;DHT22;2015;48.670;9.060;2023-05-10T12:30:44;16.70;99.90
4002;DHT22;2015;48.670;9.060;2023-05-10T12:33:17;16.60;99.90
4002;DHT22;2015;48.670;9.060;2023-05-10T12:35:54;16.50;99.90
4002;DHT22;2015;48.670;9.060;2023-05-10T12:41:07;16.10;99.90
4002;DHT22;2015;48.670;9.060;2023-05-10T12:43:39;15.90;99.90
4002;DHT22;2015;48.670;9.060;2023-05-10T12:46:13;15.70;99.90
4002;DHT22;2015;48.670;9.060;2023-05-10T12:48:46;15.90;99.90
4002;DHT22;2015;48.670;9.060;2023-05-10T12:51:28;15.90;99.90
4002;DHT22;2015;48.670;9.060;2023-05-10T12:53:59;16.30;99.90
4002;DHT22;2015;48.670;9.060;2023-05-10T12:56:31;16.60;99.90
4002;DHT22;2015;48.670;9.060;2023-05-10T12:59:03;16.70;99.90
4002;DHT22;2015;48.670;9.060;2023-05-10T13:01:35;16.70;99.90
4002;DHT22;2015;48.670;9.060;2023-05-10T13:04:07;16.40;99.90
4002;DHT22;2015;48.670;9.060;2023-05-10T13:06:39;16.20;99.90
4002;DHT22;2015;48.670;9.060;2023-05-10T13:09:10;16.10;99.90
4002;DHT22;2015;48.670;9.060;2023-05-10T13:11:42;16.20;99.90
4002;DHT22;2015;48.670;9.060;2023-05-10T13:14:14;16.20;99.90
4002;DHT22;2015;48.670;9.060;2023-05-10T13:16:47;16.10;99.90
4002;DHT22;2015;48.670;9.060;2023-05-10T13:19:18;16.10;99.90
4002;DHT22;2015;48.670;9.060;2023-05-10T13:21:51;16.10;99.90
4002;DHT22;2015;48.670;9.060;2023-05-10T13:24:22;16.00;99.90
4002;DHT22;2015;48.670;9.060;2023-05-10T13:26:54;16.20;99.90
4002;DHT22;2015;48.670;9.060;2023-05-10T13:29:26;16.00;99.90
4002;DHT22;2015;48.670;9.060;2023-05-10T13:31:58;16.20;99.90
4002;DHT22;2015;48.670;9.060;2023-05-10T13:34:30;16.30;99.90
4002;DHT22;2015;48.670;9.060;2023-05-10T13:37:02;16.40;99.90
4002;DHT22;2015;48.670;9.060;2023-05-10T13:39:34;16.30;99.90
4002;DHT22;2015;48.670;9.060;2023-05-10T13:42:08;16.30;99.90
4002;DHT22;2015;48.670;9.060;2023-05-10T13:44:40;16.30;99.90
4002;DHT22;2015;48.670;9.060;2023-05-10T13:47:12;16.50;99.90
4002;DHT22;2015;48.670;9.060;2023-05-10T13:49:43;16.60;99.90
4002;DHT22;2015;48.670;9.060;2023-05-10T13:52:15;16.60;99.90
4002;DHT22;2015;48.670;9.060;2023-05-10T13:54:47;16.60;99.90
4002;DHT22;2015;48.670;9.060;2023-05-10T13:57:19;16.70;99.90
4002;DHT22;2015;48.670;9.060;2023-05-10T13:59:51;16.50;99.90
4002;DHT22;2015;48.670;9.060;2023-05-10T14:02:25;16.70;99.90
4002;DHT22;2015;48.670;9.060;2023-05-10T14:04:59;16.70;99.90
4002;DHT22;2015;48.670;9.060;2023-05-10T14:07:30;16.70;99.90
4002;DHT22;2015;48.670;9.060;2023-05-10T14:10:02;16.70;99.90
4002;DHT22;2015;48.670;9.060;2023-05-10T14:12:34;16.70;99.90
4002;DHT22;2015;48.670;9.060;2023-05-10T14:15:06;16.60;99.90
4002;DHT22;2015;48.670;9.060;2023-05-10T14:17:38;16.60;99.90
4002;DHT22;2015;48.670;9.060;2023-05-10T14:20:10;16.80;99.90
4002;DHT22;2015;48.670;9.060;2023-05-10T14:22:42;16.70;99.90
4002;DHT22;2015;48.670;9.060;2023-05-10T14:25:14;16.60;99.90
4002;DHT22;2015;48.670;9.060;2023-05-10T14:27:47;16.80;99.90
4002;DHT22;2015;48.670;9.060;2023-05-10T14:30:18;16.70;99.90
4002;DHT22;2015;48.670;9.060;2023-05-10T14:32:50;16.70;99.90
4002;DHT22;2015;48.670;9.060;2023-05-10T14:35:22;16.80;99.90
4002;DHT22;2015;48.670;9.060;2023-05-10T14:37:54;16.70;99.90
4002;DHT22;2015;48.670;9.060;2023-05-10T14:40:26;16.70;99.90
4002;DHT22;2015;48.670;9.060;2023-05-10T14:42:58;16.50;99.90
4002;DHT22;2015;48.670;9.060;2023-05-10T14:45:30;16.60;99.90
4002;DHT22;2015;48.670;9.060;2023-05-10T14:48:02;16.60;99.90
4002;DHT22;2015;48.670;9.060;2023-05-10T14:50:36;16.60;99.90
4002;DHT22;2015;48.670;9.060;2023-05-10T14:53:08;16.50;99.90
4002;DHT22;2015;48.670;9.060;2023-05-10T14:55:40;16.50;99.90
4002;DHT22;2015;48.670;9.060;2023-05-10T14:58:11;16.40;99.90
4002;DHT22;2015;48.670;9.060;2023-05-10T15:00:43;16.50;99.90
4002;DHT22;2015;48.670;9.060;2023-05-10T15:03:15;16.40;99.90
4002;DHT22;2015;48.670;9.060;2023-05-10T15:05:48;16.60;99.90
4002;DHT22;2015;48.670;9.060;2023-05-10T15:08:19;16.60;99.90
4002;DHT22;2015;48.670;9.060;2023-05-10T15:10:51;16.60;99.90
4002;DHT22;2015;48.670;9.060;2023-05-10T15:13:23;16.60;99.90
4002;DHT22;2015;48.670;9.060;2023-05-10T15:15:55;16.60;99.90
4002;DHT22;2015;48.670;9.060;2023-05-10T15:18:27;16.60;99.90
4002;DHT22;2015;48.670;9.060;2023-05-10T15:20:59;16.50;99.90
4002;DHT22;2015;48.670;9.060;2023-05-10T15:23:30;16.50;99.90
4002;DHT22;2015;48.670;9.060;2023-05-10T15:26:03;16.50;99.90
4002;DHT22;2015;48.670;9.060;2023-05-10T15:28:35;16.30;99.90
4002;DHT22;2015;48.670;9.060;2023-05-10T15:31:07;16.50;99.90
4002;DHT22;2015;48.670;9.060;2023-05-10T15:33:39;16.30;99.90
4002;DHT22;2015;48.670;9.060;2023-05-10T15:36:10;16.30;99.90
4002;DHT22;2015;48.670;9.060;2023-05-10T15:38:42;16.30;99.90
4002;DHT22;2015;48.670;9.060;2023-05-10T15:41:14;16.40;99.90
4002;DHT22;2015;48.670;9.060;2023-05-10T15:43:46;16.40;99.90
4002;DHT22;2015;48.670;9.060;2023-05-10T15:46:18;16.40;99.90
4002;DHT22;2015;48.670;9.060;2023-05-10T15:48:49;16.40;99.90
4002;DHT22;2015;48.670;9.060;2023-05-10T15:51:21;16.60;99.90
4002;DHT22;2015;48.670;9.060;2023-05-10T15:53:53;16.70;99.90
4002;DHT22;2015;48.670;9.060;2023-05-10T15:56:37;16.60;99.90
4002;DHT22;2015;48.670;9.060;2023-05-10T15:59:09;16.40;99.90
4002;DHT22;2015;48.670;9.060;2023-05-10T16:01:42;16.20;99.90
4002;DHT22;2015;48.670;9.060;2023-05-10T16:04:14;16.10;99.90
4002;DHT22;2015;48.670;9.060;2023-05-10T16:06:46;16.10;99.90
4002;DHT22;2015;48.670;9.060;2023-05-10T16:09:17;16.00;99.90
4002;DHT22;2015;48.670;9.060;2023-05-10T16:11:49;16.10;99.90
4002;DHT22;2015;48.670;9.060;2023-05-10T16:14:21;16.10;99.90
4002;DHT22;2015;48.670;9.060;2023-05-10T16:16:55;16.00;99.90
4002;DHT22;2015;48.670;9.060;2023-05-10T16:19:27;16.00;99.90
4002;DHT22;2015;48.670;9.060;2023-05-10T16:22:00;16.10;99.90
4002;DHT22;2015;48.670;9.060;2023-05-10T16:24:32;16.10;99.90
4002;DHT22;2015;48.670;9.060;2023-05-10T16:27:04;15.90;99.90
4002;DHT22;2015;48.670;9.060;2023-05-10T16:29:36;15.90;99.90
4002;DHT22;2015;48.670;9.060;2023-05-10T16:32:08;15.80;99.90
4002;DHT22;2015;48.670;9.060;2023-05-10T16:34:39;15.90;99.90
4002;DHT22;2015;48.670;9.060;2023-05-10T16:37:11;15.90;99.90
4002;DHT22;2015;48.670;9.060;2023-05-10T16:39:43;15.90;99.90
4002;DHT22;2015;48.670;9.060;2023-05-10T16:42:15;15.80;99.90
4002;DHT22;2015;48.670;9.060;2023-05-10T16:44:46;15.60;99.90
4002;DHT22;2015;48.670;9.060;2023-05-10T16:47:18;15.50;99.90
4002;DHT22;2015;48.670;9.060;2023-05-10T16:49:50;15.50;99.90
4002;DHT22;2015;48.670;9.060;2023-05-10T16:52:22;15.40;99.90
4002;DHT22;2015;48.670;9.060;2023-05-10T16:54:54;15.20;99.90
4002;DHT22;2015;48.670;9.060;2023-05-10T16:57:26;15.00;99.90
4002;DHT22;2015;48.670;9.060;2023-05-10T16:59:58;15.00;99.90
4002;DHT22;2015;48.670;9.060;2023-05-10T17:02:30;14.80;99.90
4002;DHT22;2015;48.670;9.060;2023-05-10T17:05:03;14.70;99.90
4002;DHT22;2015;48.670;9.060;2023-05-10T17:07:35;14.60;99.90
4002;DHT22;2015;48.670;9.060;2023-05-10T17:10:07;14.60;99.90
4002;DHT22;2015;48.670;9.060;2023-05-10T17:12:38;14.50;99.90
4002;DHT22;2015;48.670;9.060;2023-05-10T17:15:10;14.50;99.90
4002;DHT22;2015;48.670;9.060;2023-05-10T17:17:43;14.40;99.90
4002;DHT22;2015;48.670;9.060;2023-05-10T17:20:15;14.20;99.90